sensor_id;sensor_type;location;lat;lon;timestamp;pressure;altitude;pressure_sealevel;temperature;humidity
2036;BME280;23642;42.658;23.350;2023-02-25T00:01:29;48139.78;;;-146.31;100.00
2036;BME280;23642;42.658;23.350;2023-02-25T00:03:57;48110.91;;;-146.31;100.00
2036;BME280;23642;42.658;23.350;2023-02-25T00:06:25;48059.38;;;-146.31;100.00
2036;BME280;23642;42.658;23.350;2023-02-25T00:08:52;48073.81;;;-146.31;100.00
2036;BME280;23642;42.658;23.350;2023-02-25T00:11:20;48032.59;;;-146.31;100.00
2036;BME280;23642;42.658;23.350;2023-02-25T00:13:48;48012.00;;;-146.31;100.00
2036;BME280;23642;42.658;23.350;2023-02-25T00:16:15;47884.22;;;-146.31;100.00
2036;BME280;23642;42.658;23.350;2023-02-25T00:18:44;47832.69;;;-146.31;100.00
2036;BME280;23642;42.658;23.350;2023-02-25T00:21:11;47981.06;;;-146.31;100.00
2036;BME280;23642;42.658;23.350;2023-02-25T00:23:41;48082.06;;;-146.31;100.00
2036;BME280;23642;42.658;23.350;2023-02-25T00:26:08;48022.28;;;-146.31;100.00
2036;BME280;23642;42.658;23.350;2023-02-25T00:28:36;47919.25;;;-146.31;100.00
2036;BME280;23642;42.658;23.350;2023-02-25T00:31:08;47878.03;;;-146.31;100.00
2036;BME280;23642;42.658;23.350;2023-02-25T00:33:36;47999.63;;;-146.31;100.00
2036;BME280;23642;42.658;23.350;2023-02-25T00:36:09;47970.78;;;-146.31;100.00
2036;BME280;23642;42.658;23.350;2023-02-25T00:38:36;48005.81;;;-146.31;100.00
2036;BME280;23642;42.658;23.350;2023-02-25T00:41:06;47972.84;;;-146.31;100.00
2036;BME280;23642;42.658;23.350;2023-02-25T00:43:37;48057.34;;;-146.31;100.00
2036;BME280;23642;42.658;23.350;2023-02-25T00:46:04;48024.34;;;-146.31;99.99
2036;BME280;23642;42.658;23.350;2023-02-25T00:48:31;47976.97;;;-146.31;100.00
2036;BME280;23642;42.658;23.350;2023-02-25T00:51:04;47966.66;;;-146.31;100.00
2036;BME280;23642;42.658;23.350;2023-02-25T00:53:33;47929.56;;;-146.31;100.00
2036;BME280;23642;42.658;23.350;2023-02-25T00:56:03;47888.34;;;-146.31;100.00
2036;BME280;23642;42.658;23.350;2023-02-25T00:58:30;47950.16;;;-146.31;100.00
2036;BME280;23642;42.658;23.350;2023-02-25T01:00:56;47892.47;;;-146.31;100.00
2036;BME280;23642;42.658;23.350;2023-02-25T01:03:24;47810.03;;;-146.31;100.00
2036;BME280;23642;42.658;23.350;2023-02-25T01:05:51;47647.22;;;-146.31;100.00
2036;BME280;23642;42.658;23.350;2023-02-25T01:08:19;47480.31;;;-146.31;100.00
2036;BME280;23642;42.658;23.350;2023-02-25T01:10:47;47500.94;;;-146.31;100.00
2036;BME280;23642;42.658;23.350;2023-02-25T01:13:14;47538.00;;;-146.31;100.00
2036;BME280;23642;42.658;23.350;2023-02-25T01:15:41;47476.19;;;-146.31;100.00
2036;BME280;23642;42.658;23.350;2023-02-25T01:18:08;47371.09;;;-146.31;100.00
2036;BME280;23642;42.658;23.350;2023-02-25T01:20:37;47228.94;;;-146.31;100.00
2036;BME280;23642;42.658;23.350;2023-02-25T01:23:04;47088.81;;;-146.31;100.00
2036;BME280;23642;42.658;23.350;2023-02-25T01:25:31;46989.94;;;-146.31;100.00
2036;BME280;23642;42.658;23.350;2023-02-25T01:27:59;46907.53;;;-146.31;100.00
2036;BME280;23642;42.658;23.350;2023-02-25T01:30:26;46858.06;;;-146.31;100.00
2036;BME280;23642;42.658;23.350;2023-02-25T01:32:53;46792.16;;;-146.31;100.00
2036;BME280;23642;42.658;23.350;2023-02-25T01:35:19;46722.09;;;-146.31;100.00
2036;BME280;23642;42.658;23.350;2023-02-25T01:37:46;46647.94;;;-146.31;100.00
2036;BME280;23642;42.658;23.350;2023-02-25T01:40:15;46604.69;;;-146.31;100.00
2036;BME280;23642;42.658;23.350;2023-02-25T01:42:42;46699.44;;;-146.31;100.00
2036;BME280;23642;42.658;23.350;2023-02-25T01:45:29;46645.88;;;-146.31;100.00
2036;BME280;23642;42.658;23.350;2023-02-25T01:48:00;46662.38;;;-146.31;100.00
2036;BME280;23642;42.658;23.350;2023-02-25T01:50:34;46711.81;;;-146.31;100.00
2036;BME280;23642;42.658;23.350;2023-02-25T01:53:02;46701.50;;;-146.31;100.00
2036;BME280;23642;42.658;23.350;2023-02-25T01:55:30;46685.03;;;-146.31;100.00
2036;BME280;23642;42.658;23.350;2023-02-25T01:57:59;46617.03;;;-146.31;100.00
2036;BME280;23642;42.658;23.350;2023-02-25T02:00:28;46565.53;;;-146.31;100.00
2036;BME280;23642;42.658;23.350;2023-02-25T02:02:57;46481.09;;;-146.31;100.00
2036;BME280;23642;42.658;23.350;2023-02-25T02:05:32;46503.75;;;-146.31;100.00
2036;BME280;23642;42.658;23.350;2023-02-25T02:08:03;46452.25;;;-146.31;100.00
2036;BME280;23642;42.658;23.350;2023-02-25T02:10:30;46538.75;;;-146.31;100.00
2036;BME280;23642;42.658;23.350;2023-02-25T02:12:57;46701.50;;;-146.31;100.00
2036;BME280;23642;42.658;23.350;2023-02-25T02:15:24;46825.13;;;-146.31;100.00
2036;BME280;23642;42.658;23.350;2023-02-25T02:17:54;46921.94;;;-146.31;100.00
2036;BME280;23642;42.658;23.350;2023-02-25T02:20:25;46950.78;;;-146.31;100.00
2036;BME280;23642;42.658;23.350;2023-02-25T02:23:11;46853.97;;;-146.31;100.00
2036;BME280;23642;42.658;23.350;2023-02-25T02:32:02;47014.66;;;-146.31;100.00
2036;BME280;23642;42.658;23.350;2023-02-25T02:34:39;46924.00;;;-146.31;100.00
2036;BME280;23642;42.658;23.350;2023-02-25T02:37:19;46868.38;;;-146.31;100.00
2036;BME280;23642;42.658;23.350;2023-02-25T02:39:52;46874.56;;;-146.31;100.00
2036;BME280;23642;42.658;23.350;2023-02-25T02:42:29;46767.44;;;-146.31;100.00
2036;BME280;23642;42.658;23.350;2023-02-25T02:45:01;46987.88;;;-146.31;100.00
2036;BME280;23642;42.658;23.350;2023-02-25T02:47:33;47051.75;;;-146.31;100.00
2036;BME280;23642;42.658;23.350;2023-02-25T02:50:04;46987.88;;;-146.31;100.00
2036;BME280;23642;42.658;23.350;2023-02-25T02:52:34;46944.59;;;-146.31;100.00
2036;BME280;23642;42.658;23.350;2023-02-25T02:55:05;46956.97;;;-146.31;100.00
2036;BME280;23642;42.658;23.350;2023-02-25T02:57:36;46907.53;;;-146.31;100.00
2036;BME280;23642;42.658;23.350;2023-02-25T03:00:08;46907.53;;;-146.31;100.00
2036;BME280;23642;42.658;23.350;2023-02-25T03:02:44;47220.69;;;-146.31;99.60
2036;BME280;23642;42.658;23.350;2023-02-25T03:05:14;47614.25;;;-146.31;98.56
2036;BME280;23642;42.658;23.350;2023-02-25T03:07:50;47628.69;;;-146.31;98.35
2036;BME280;23642;42.658;23.350;2023-02-25T03:10:21;47781.19;;;-146.31;98.01
2036;BME280;23642;42.658;23.350;2023-02-25T03:12:48;47735.84;;;-146.31;97.92
2036;BME280;23642;42.658;23.350;2023-02-25T03:15:15;47729.66;;;-146.31;98.59
2036;BME280;23642;42.658;23.350;2023-02-25T03:17:45;47709.06;;;-146.31;98.46
2036;BME280;23642;42.658;23.350;2023-02-25T03:20:15;47727.59;;;-146.31;98.30
2036;BME280;23642;42.658;23.350;2023-02-25T03:22:47;47694.63;;;-146.31;98.67
2036;BME280;23642;42.658;23.350;2023-02-25T03:25:18;47787.34;;;-146.31;97.97
2036;BME280;23642;42.658;23.350;2023-02-25T03:27:47;47861.53;;;-146.31;97.83
2036;BME280;23642;42.658;23.350;2023-02-25T03:30:22;47927.50;;;-146.31;97.46
2036;BME280;23642;42.658;23.350;2023-02-25T03:32:55;47828.56;;;-146.31;98.43
2036;BME280;23642;42.658;23.350;2023-02-25T03:35:25;47620.44;;;-146.31;99.38
2036;BME280;23642;42.658;23.350;2023-02-25T03:37:57;47467.97;;;-146.31;99.85
2036;BME280;23642;42.658;23.350;2023-02-25T03:40:26;47344.31;;;-146.31;100.00
2036;BME280;23642;42.658;23.350;2023-02-25T03:42:56;47171.25;;;-146.31;100.00
2036;BME280;23642;42.658;23.350;2023-02-25T03:45:25;47035.25;;;-146.31;100.00
2036;BME280;23642;42.658;23.350;2023-02-25T03:47:54;46940.50;;;-146.31;100.00
2036;BME280;23642;42.658;23.350;2023-02-25T03:50:27;46928.13;;;-146.31;100.00
2036;BME280;23642;42.658;23.350;2023-02-25T03:52:55;47051.75;;;-146.31;100.00
2036;BME280;23642;42.658;23.350;2023-02-25T03:55:23;47072.34;;;-146.31;100.00
2036;BME280;23642;42.658;23.350;2023-02-25T03:57:50;47016.72;;;-146.31;100.00
2036;BME280;23642;42.658;23.350;2023-02-25T04:00:22;47068.22;;;-146.31;100.00
2036;BME280;23642;42.658;23.350;2023-02-25T04:02:49;47076.47;;;-146.31;100.00
2036;BME280;23642;42.658;23.350;2023-02-25T04:05:19;46952.84;;;-146.31;100.00
2036;BME280;23642;42.658;23.350;2023-02-25T04:07:47;46856.03;;;-146.31;100.00
2036;BME280;23642;42.658;23.350;2023-02-25T04:10:15;46705.63;;;-146.31;100.00
2036;BME280;23642;42.658;23.350;2023-02-25T04:12:42;46658.25;;;-146.31;100.00
2036;BME280;23642;42.658;23.350;2023-02-25T04:15:10;46567.59;;;-146.31;100.00
2036;BME280;23642;42.658;23.350;2023-02-25T04:17:38;46481.09;;;-146.31;100.00
2036;BME280;23642;42.658;23.350;2023-02-25T04:20:05;46429.59;;;-146.31;100.00
2036;BME280;23642;42.658;23.350;2023-02-25T04:22:34;46520.22;;;-146.31;100.00
2036;BME280;23642;42.658;23.350;2023-02-25T04:25:00;46598.50;;;-146.31;100.00
2036;BME280;23642;42.658;23.350;2023-02-25T04:27:27;46656.19;;;-146.31;100.00
2036;BME280;23642;42.658;23.350;2023-02-25T04:29:56;46783.91;;;-146.31;100.00
2036;BME280;23642;42.658;23.350;2023-02-25T04:32:23;46858.06;;;-146.31;100.00
2036;BME280;23642;42.658;23.350;2023-02-25T04:34:50;46827.19;;;-146.31;100.00
2036;BME280;23642;42.658;23.350;2023-02-25T04:37:17;46796.28;;;-146.31;100.00
2036;BME280;23642;42.658;23.350;2023-02-25T04:39:45;46633.53;;;-146.31;100.00
2036;BME280;23642;42.658;23.350;2023-02-25T04:42:12;46549.06;;;-146.31;100.00
2036;BME280;23642;42.658;23.350;2023-02-25T04:44:39;46421.34;;;-146.31;100.00
2036;BME280;23642;42.658;23.350;2023-02-25T04:47:05;46314.22;;;-146.31;100.00
2036;BME280;23642;42.658;23.350;2023-02-25T04:49:32;46233.91;;;-146.31;100.00
2036;BME280;23642;42.658;23.350;2023-02-25T04:52:09;46555.25;;;-146.31;100.00
2036;BME280;23642;42.658;23.350;2023-02-25T04:54:37;46726.22;;;-146.31;100.00
2036;BME280;23642;42.658;23.350;2023-02-25T04:57:05;46913.72;;;-146.31;100.00
2036;BME280;23642;42.658;23.350;2023-02-25T04:59:32;46895.16;;;-146.31;100.00
2036;BME280;23642;42.658;23.350;2023-02-25T05:01:58;46829.25;;;-146.31;100.00
2036;BME280;23642;42.658;23.350;2023-02-25T05:04:25;46886.91;;;-146.31;100.00
2036;BME280;23642;42.658;23.350;2023-02-25T05:06:52;46812.75;;;-146.31;100.00
2036;BME280;23642;42.658;23.350;2023-02-25T05:09:19;46948.72;;;-146.31;100.00
2036;BME280;23642;42.658;23.350;2023-02-25T05:11:46;47082.66;;;-146.31;99.71
2036;BME280;23642;42.658;23.350;2023-02-25T05:14:15;47068.22;;;-146.31;99.54
2036;BME280;23642;42.658;23.350;2023-02-25T05:16:41;47072.34;;;-146.31;100.00
2036;BME280;23642;42.658;23.350;2023-02-25T05:19:08;47031.13;;;-146.31;100.00
2036;BME280;23642;42.658;23.350;2023-02-25T05:21:40;47074.41;;;-146.31;99.40
2036;BME280;23642;42.658;23.350;2023-02-25T05:24:07;47251.59;;;-146.31;99.01
2036;BME280;23642;42.658;23.350;2023-02-25T05:26:33;47257.78;;;-146.31;99.07
2036;BME280;23642;42.658;23.350;2023-02-25T05:29:00;47270.16;;;-146.31;99.22
2036;BME280;23642;42.658;23.350;2023-02-25T05:31:28;47474.13;;;-146.31;97.99
2036;BME280;23642;42.658;23.350;2023-02-25T05:33:55;47737.91;;;-146.31;97.02
2036;BME280;23642;42.658;23.350;2023-02-25T05:36:22;47723.47;;;-146.31;97.41
2036;BME280;23642;42.658;23.350;2023-02-25T05:38:52;47742.03;;;-146.31;97.48
2036;BME280;23642;42.658;23.350;2023-02-25T05:41:19;47653.41;;;-146.31;97.91
2036;BME280;23642;42.658;23.350;2023-02-25T05:43:46;47671.97;;;-146.31;97.86
2036;BME280;23642;42.658;23.350;2023-02-25T05:46:13;47645.16;;;-146.31;98.22
2036;BME280;23642;42.658;23.350;2023-02-25T05:48:42;47649.28;;;-146.31;98.10
2036;BME280;23642;42.658;23.350;2023-02-25T05:51:12;47663.72;;;-146.31;97.93
2036;BME280;23642;42.658;23.350;2023-02-25T05:53:39;47719.34;;;-146.31;97.54
2036;BME280;23642;42.658;23.350;2023-02-25T05:56:09;47807.97;;;-146.31;97.00
2036;BME280;23642;42.658;23.350;2023-02-25T05:58:36;47814.16;;;-146.31;97.26
2036;BME280;23642;42.658;23.350;2023-02-25T06:01:05;48034.66;;;-146.31;95.84
2036;BME280;23642;42.658;23.350;2023-02-25T06:03:35;48042.91;;;-146.31;95.90
2036;BME280;23642;42.658;23.350;2023-02-25T06:06:04;48110.91;;;-146.31;95.37
2036;BME280;23642;42.658;23.350;2023-02-25T06:08:31;48152.13;;;-146.31;95.33
2036;BME280;23642;42.658;23.350;2023-02-25T06:10:58;48224.28;;;-146.31;95.18
2036;BME280;23642;42.658;23.350;2023-02-25T06:13:25;48263.44;;;-146.31;94.38
2036;BME280;23642;42.658;23.350;2023-02-25T06:15:52;48426.25;;;-146.31;93.77
2036;BME280;23642;42.658;23.350;2023-02-25T06:18:19;48399.47;;;-146.31;93.94
2036;BME280;23642;42.658;23.350;2023-02-25T06:20:46;48448.94;;;-146.31;93.99
2036;BME280;23642;42.658;23.350;2023-02-25T06:23:14;48457.19;;;-146.31;94.29
2036;BME280;23642;42.658;23.350;2023-02-25T06:25:41;48448.94;;;-146.31;94.19
2036;BME280;23642;42.658;23.350;2023-02-25T06:28:08;48523.13;;;-146.31;93.76
2036;BME280;23642;42.658;23.350;2023-02-25T06:30:35;48578.78;;;-146.31;93.05
2036;BME280;23642;42.658;23.350;2023-02-25T06:33:02;48712.78;;;-146.31;92.26
2036;BME280;23642;42.658;23.350;2023-02-25T06:35:29;48706.59;;;-146.31;92.45
2036;BME280;23642;42.658;23.350;2023-02-25T06:37:56;48848.81;;;-146.31;91.17
2036;BME280;23642;42.658;23.350;2023-02-25T06:40:25;48869.44;;;-146.31;91.73
2036;BME280;23642;42.658;23.350;2023-02-25T06:42:52;48960.16;;;-146.31;90.65
2036;BME280;23642;42.658;23.350;2023-02-25T06:45:19;49046.72;;;-146.31;90.04
2036;BME280;23642;42.658;23.350;2023-02-25T06:47:46;49217.84;;;-146.31;89.02
2036;BME280;23642;42.658;23.350;2023-02-25T06:50:12;49368.34;;;-146.31;88.16
2036;BME280;23642;42.658;23.350;2023-02-25T06:52:39;49430.19;;;-146.31;87.82
2036;BME280;23642;42.658;23.350;2023-02-25T06:55:07;49611.63;;;-146.31;86.29
2036;BME280;23642;42.658;23.350;2023-02-25T06:57:35;49758.03;;;-146.31;86.40
2036;BME280;23642;42.658;23.350;2023-02-25T07:00:03;49735.34;;;-146.31;86.42
2036;BME280;23642;42.658;23.350;2023-02-25T07:02:30;49877.63;;;-146.31;85.17
2036;BME280;23642;42.658;23.350;2023-02-25T07:04:57;49933.31;;;-146.31;84.97
2036;BME280;23642;42.658;23.350;2023-02-25T07:07:25;50172.50;;;-146.31;82.47
2036;BME280;23642;42.658;23.350;2023-02-25T07:09:52;50238.50;;;-146.31;83.02
2036;BME280;23642;42.658;23.350;2023-02-25T07:12:19;50380.81;;;-146.31;81.76
2036;BME280;23642;42.658;23.350;2023-02-25T07:14:47;50477.75;;;-146.31;81.49
2036;BME280;23642;42.658;23.350;2023-02-25T07:17:14;50549.94;;;-146.31;81.46
2036;BME280;23642;42.658;23.350;2023-02-25T07:19:41;50510.75;;;-146.31;83.00
2036;BME280;23642;42.658;23.350;2023-02-25T07:22:12;50578.81;;;-146.31;81.06
2036;BME280;23642;42.658;23.350;2023-02-25T07:24:39;50634.47;;;-146.31;80.78
2036;BME280;23642;42.658;23.350;2023-02-25T07:27:06;50714.94;;;-146.31;80.58
2036;BME280;23642;42.658;23.350;2023-02-25T07:29:33;50824.25;;;-146.31;79.23
2036;BME280;23642;42.658;23.350;2023-02-25T07:32:01;50830.44;;;-146.31;79.71
2036;BME280;23642;42.658;23.350;2023-02-25T07:34:28;50875.81;;;-146.31;78.41
2036;BME280;23642;42.658;23.350;2023-02-25T07:36:55;50941.81;;;-146.31;77.50
2036;BME280;23642;42.658;23.350;2023-02-25T07:39:22;51067.63;;;-146.31;76.42
2036;BME280;23642;42.658;23.350;2023-02-25T07:41:48;51183.16;;;-146.31;76.07
2036;BME280;23642;42.658;23.350;2023-02-25T07:44:15;51197.59;;;-146.31;77.18
2036;BME280;23642;42.658;23.350;2023-02-25T07:46:42;51201.72;;;-146.31;77.07
2036;BME280;23642;42.658;23.350;2023-02-25T07:49:10;51228.53;;;-146.31;76.57
2036;BME280;23642;42.658;23.350;2023-02-25T07:51:37;51278.06;;;-146.31;75.60
2036;BME280;23642;42.658;23.350;2023-02-25T07:54:03;51300.75;;;-146.31;74.70
2036;BME280;23642;42.658;23.350;2023-02-25T07:56:30;51372.94;;;-146.31;73.77
2036;BME280;23642;42.658;23.350;2023-02-25T07:58:57;51443.09;;;-146.31;73.36
2036;BME280;23642;42.658;23.350;2023-02-25T08:01:26;51457.53;;;-146.31;73.79
2036;BME280;23642;42.658;23.350;2023-02-25T08:03:54;51523.53;;;-146.31;73.76
2036;BME280;23642;42.658;23.350;2023-02-25T08:06:23;51500.84;;;-146.31;74.14
2036;BME280;23642;42.658;23.350;2023-02-25T08:08:50;51562.75;;;-146.31;72.82
2036;BME280;23642;42.658;23.350;2023-02-25T08:11:19;51632.88;;;-146.31;71.83
2036;BME280;23642;42.658;23.350;2023-02-25T08:13:46;51560.69;;;-146.31;72.52
2036;BME280;23642;42.658;23.350;2023-02-25T08:16:15;51595.75;;;-146.31;72.02
2036;BME280;23642;42.658;23.350;2023-02-25T08:18:42;51670.03;;;-146.31;71.05
2036;BME280;23642;42.658;23.350;2023-02-25T08:21:10;51733.97;;;-146.31;71.22
2036;BME280;23642;42.658;23.350;2023-02-25T08:23:39;51752.56;;;-146.31;70.42
2036;BME280;23642;42.658;23.350;2023-02-25T08:26:06;51775.25;;;-146.31;70.70
2036;BME280;23642;42.658;23.350;2023-02-25T08:28:35;51769.06;;;-146.31;70.65
2036;BME280;23642;42.658;23.350;2023-02-25T08:31:02;51841.28;;;-146.31;69.86
2036;BME280;23642;42.658;23.350;2023-02-25T08:33:29;51820.63;;;-146.31;70.03
2036;BME280;23642;42.658;23.350;2023-02-25T08:36:05;51826.81;;;-146.31;68.64
2036;BME280;23642;42.658;23.350;2023-02-25T08:38:34;51911.41;;;-146.31;68.58
2036;BME280;23642;42.658;23.350;2023-02-25T08:41:02;51919.69;;;-146.31;69.15
2036;BME280;23642;42.658;23.350;2023-02-25T08:43:30;51888.72;;;-146.31;69.72
2036;BME280;23642;42.658;23.350;2023-02-25T08:45:56;51909.34;;;-146.31;69.73
2036;BME280;23642;42.658;23.350;2023-02-25T08:48:23;51923.81;;;-146.31;69.20
2036;BME280;23642;42.658;23.350;2023-02-25T08:50:50;51927.94;;;-146.31;70.23
2036;BME280;23642;42.658;23.350;2023-02-25T08:53:17;51921.75;;;-146.31;69.44
2036;BME280;23642;42.658;23.350;2023-02-25T08:55:44;51921.75;;;-146.31;68.05
2036;BME280;23642;42.658;23.350;2023-02-25T08:58:13;51973.31;;;-146.31;67.83
2036;BME280;23642;42.658;23.350;2023-02-25T09:00:42;51991.88;;;-146.31;66.99
2036;BME280;23642;42.658;23.350;2023-02-25T09:03:09;51979.50;;;-146.31;66.65
2036;BME280;23642;42.658;23.350;2023-02-25T09:05:36;51944.44;;;-146.31;66.83
2036;BME280;23642;42.658;23.350;2023-02-25T09:08:03;52020.78;;;-146.31;66.88
2036;BME280;23642;42.658;23.350;2023-02-25T09:10:30;52010.47;;;-146.31;66.95
2036;BME280;23642;42.658;23.350;2023-02-25T09:12:58;52000.16;;;-146.31;67.38
2036;BME280;23642;42.658;23.350;2023-02-25T09:15:26;52020.78;;;-146.31;67.51
2036;BME280;23642;42.658;23.350;2023-02-25T09:17:53;52068.22;;;-146.31;68.88
2036;BME280;23642;42.658;23.350;2023-02-25T09:20:20;52084.75;;;-146.31;70.22
2036;BME280;23642;42.658;23.350;2023-02-25T09:22:48;52076.50;;;-146.31;71.10
2036;BME280;23642;42.658;23.350;2023-02-25T09:25:15;52057.91;;;-146.31;70.44
2036;BME280;23642;42.658;23.350;2023-02-25T09:27:41;52059.97;;;-146.31;71.30
2036;BME280;23642;42.658;23.350;2023-02-25T09:30:09;52006.34;;;-146.31;70.93
2036;BME280;23642;42.658;23.350;2023-02-25T09:32:37;52020.78;;;-146.31;70.29
2036;BME280;23642;42.658;23.350;2023-02-25T09:35:05;52041.41;;;-146.31;69.89
2036;BME280;23642;42.658;23.350;2023-02-25T09:37:33;52055.84;;;-146.31;70.65
2036;BME280;23642;42.658;23.350;2023-02-25T09:40:00;52057.91;;;-146.31;71.60
2036;BME280;23642;42.658;23.350;2023-02-25T09:42:38;52045.53;;;-146.31;72.40
2036;BME280;23642;42.658;23.350;2023-02-25T09:45:13;52014.59;;;-146.31;72.97
2036;BME280;23642;42.658;23.350;2023-02-25T09:47:47;52004.28;;;-146.31;73.11
2036;BME280;23642;42.658;23.350;2023-02-25T09:50:19;51989.81;;;-146.31;73.72
2036;BME280;23642;42.658;23.350;2023-02-25T09:52:52;51987.75;;;-146.31;73.23
2036;BME280;23642;42.658;23.350;2023-02-25T09:55:33;51960.94;;;-146.31;72.81
2036;BME280;23642;42.658;23.350;2023-02-25T09:58:05;51942.38;;;-146.31;71.75
2036;BME280;23642;42.658;23.350;2023-02-25T10:00:38;51938.25;;;-146.31;70.85
2036;BME280;23642;42.658;23.350;2023-02-25T10:03:15;51963.00;;;-146.31;71.30
2036;BME280;23642;42.658;23.350;2023-02-25T10:05:48;51940.31;;;-146.31;70.88
2036;BME280;23642;42.658;23.350;2023-02-25T10:08:21;51950.63;;;-146.31;69.67
2036;BME280;23642;42.658;23.350;2023-02-25T10:10:58;51975.38;;;-146.31;70.49
2036;BME280;23642;42.658;23.350;2023-02-25T10:13:38;51967.13;;;-146.31;69.55
2036;BME280;23642;42.658;23.350;2023-02-25T10:16:23;51971.25;;;-146.31;69.84
2036;BME280;23642;42.658;23.350;2023-02-25T10:19:03;52004.28;;;-146.31;69.50
2036;BME280;23642;42.658;23.350;2023-02-25T10:21:42;52029.03;;;-146.31;69.35
2036;BME280;23642;42.658;23.350;2023-02-25T10:24:21;52010.47;;;-146.31;68.93
2036;BME280;23642;42.658;23.350;2023-02-25T10:26:55;51989.81;;;-146.31;69.37
2036;BME280;23642;42.658;23.350;2023-02-25T10:29:27;51973.31;;;-146.31;69.28
2036;BME280;23642;42.658;23.350;2023-02-25T10:31:58;52037.28;;;-146.31;67.83
2036;BME280;23642;42.658;23.350;2023-02-25T10:34:28;52055.84;;;-146.31;66.60
2036;BME280;23642;42.658;23.350;2023-02-25T10:36:56;52004.28;;;-146.31;67.40
2036;BME280;23642;42.658;23.350;2023-02-25T10:39:25;52016.66;;;-146.31;67.61
2036;BME280;23642;42.658;23.350;2023-02-25T10:41:52;52016.66;;;-146.31;68.04
2036;BME280;23642;42.658;23.350;2023-02-25T10:44:19;52062.03;;;-146.31;66.48
2036;BME280;23642;42.658;23.350;2023-02-25T10:46:51;52072.38;;;-146.31;66.65
2036;BME280;23642;42.658;23.350;2023-02-25T10:49:20;52093.00;;;-146.31;66.22
2036;BME280;23642;42.658;23.350;2023-02-25T10:52:02;52057.91;;;-146.31;66.03
2036;BME280;23642;42.658;23.350;2023-02-25T10:54:31;52121.88;;;-146.31;65.58
2036;BME280;23642;42.658;23.350;2023-02-25T10:56:59;52107.44;;;-146.31;65.35
2036;BME280;23642;42.658;23.350;2023-02-25T10:59:30;52132.19;;;-146.31;65.29
2036;BME280;23642;42.658;23.350;2023-02-25T11:01:58;52136.31;;;-146.31;64.05
2036;BME280;23642;42.658;23.350;2023-02-25T11:04:29;52229.19;;;-146.31;62.66
2036;BME280;23642;42.658;23.350;2023-02-25T11:06:59;52260.13;;;-146.31;62.91
2036;BME280;23642;42.658;23.350;2023-02-25T11:09:32;52198.22;;;-146.31;61.82
2036;BME280;23642;42.658;23.350;2023-02-25T11:12:10;52249.81;;;-146.31;58.64
2036;BME280;23642;42.658;23.350;2023-02-25T11:14:38;52264.25;;;-146.31;59.11
2036;BME280;23642;42.658;23.350;2023-02-25T11:17:11;52241.56;;;-146.31;58.38
2036;BME280;23642;42.658;23.350;2023-02-25T11:19:42;52268.38;;;-146.31;58.41
2036;BME280;23642;42.658;23.350;2023-02-25T11:22:17;52235.38;;;-146.31;57.53
2036;BME280;23642;42.658;23.350;2023-02-25T11:24:54;52272.50;;;-146.31;57.00
2036;BME280;23642;42.658;23.350;2023-02-25T11:27:27;52328.22;;;-146.31;56.70
2036;BME280;23642;42.658;23.350;2023-02-25T11:30:01;52289.03;;;-146.31;55.88
2036;BME280;23642;42.658;23.350;2023-02-25T11:32:28;52342.69;;;-146.31;54.30
2036;BME280;23642;42.658;23.350;2023-02-25T11:35:01;52367.44;;;-146.31;54.39
2036;BME280;23642;42.658;23.350;2023-02-25T11:37:36;52342.69;;;-146.31;54.39
2036;BME280;23642;42.658;23.350;2023-02-25T11:40:20;52386.00;;;-146.31;53.98
2036;BME280;23642;42.658;23.350;2023-02-25T11:43:12;52404.59;;;-146.31;54.29
2036;BME280;23642;42.658;23.350;2023-02-25T11:45:48;52435.53;;;-146.31;54.03
2036;BME280;23642;42.658;23.350;2023-02-25T11:48:18;52431.41;;;-146.31;52.63
2036;BME280;23642;42.658;23.350;2023-02-25T11:50:51;52497.44;;;-146.31;52.38
2036;BME280;23642;42.658;23.350;2023-02-25T11:53:30;52478.88;;;-146.31;50.96
2036;BME280;23642;42.658;23.350;2023-02-25T11:56:08;52487.13;;;-146.31;51.56
2036;BME280;23642;42.658;23.350;2023-02-25T11:58:47;52571.75;;;-146.31;49.66
2036;BME280;23642;42.658;23.350;2023-02-25T12:01:42;52546.97;;;-146.31;49.29
2036;BME280;23642;42.658;23.350;2023-02-25T12:04:40;52627.47;;;-146.31;48.92
2036;BME280;23642;42.658;23.350;2023-02-25T12:07:26;52617.13;;;-146.31;48.61
2036;BME280;23642;42.658;23.350;2023-02-25T12:10:22;52707.94;;;-146.31;48.39
2036;BME280;23642;42.658;23.350;2023-02-25T12:13:23;52749.22;;;-146.31;46.51
2036;BME280;23642;42.658;23.350;2023-02-25T12:16:34;52875.13;;;-146.31;46.61
2036;BME280;23642;42.658;23.350;2023-02-25T12:19:38;53056.75;;;-146.31;45.03
2036;BME280;23642;42.658;23.350;2023-02-25T12:23:00;53302.38;;;-146.31;43.00
2036;BME280;23642;42.658;23.350;2023-02-25T12:25:42;53308.56;;;-146.31;43.21
2036;BME280;23642;42.658;23.350;2023-02-25T12:28:34;53358.09;;;-146.31;42.62
2036;BME280;23642;42.658;23.350;2023-02-25T12:37:15;53541.81;;;-146.31;41.57
2036;BME280;23642;42.658;23.350;2023-02-25T12:40:03;53562.47;;;-146.31;41.17
2036;BME280;23642;42.658;23.350;2023-02-25T12:42:44;53642.97;;;-146.31;40.98
2036;BME280;23642;42.658;23.350;2023-02-25T12:51:27;53671.88;;;-146.31;40.89
2036;BME280;23642;42.658;23.350;2023-02-25T12:54:04;53742.06;;;-146.31;40.48
2036;BME280;23642;42.658;23.350;2023-02-25T12:57:06;53779.22;;;-146.31;40.02
2036;BME280;23642;42.658;23.350;2023-02-25T12:59:55;53847.34;;;-146.31;40.24
2036;BME280;23642;42.658;23.350;2023-02-25T13:02:59;53839.09;;;-146.31;39.82
2036;BME280;23642;42.658;23.350;2023-02-25T13:05:54;53859.72;;;-146.31;40.21
2036;BME280;23642;42.658;23.350;2023-02-25T13:08:43;53857.66;;;-146.31;39.59
2036;BME280;23642;42.658;23.350;2023-02-25T13:11:24;53845.28;;;-146.31;39.32
2036;BME280;23642;42.658;23.350;2023-02-25T13:14:25;53907.22;;;-146.31;39.68